createdAt,value
2018-01-29T00:02:24.137Z,8.10
2018-01-29T00:05:29.145Z,8.20
2018-01-29T00:08:35.482Z,8.10
2018-01-29T00:11:41.266Z,8.20
2018-01-29T00:14:46.142Z,8.20
2018-01-29T00:17:51.620Z,8.10
2018-01-29T00:20:56.253Z,8.10
2018-01-29T00:24:01.650Z,8.20
2018-01-29T00:27:06.597Z,8.10
2018-01-29T00:30:12.390Z,8.10
2018-01-29T00:33:18.233Z,8.20
2018-01-29T00:36:24.617Z,8.10
2018-01-29T00:39:31.277Z,8.20
2018-01-29T00:42:36.498Z,8.20
2018-01-29T00:45:41.482Z,8.20
2018-01-29T00:48:46.721Z,8.10
2018-01-29T00:51:52.266Z,8.20
2018-01-29T00:54:58.833Z,8.20
2018-01-29T00:58:03.911Z,8.20
2018-01-29T01:01:09.631Z,8.20
2018-01-29T01:04:16.021Z,8.20
2018-01-29T01:07:21.457Z,8.10
2018-01-29T01:10:27.929Z,8.00
2018-01-29T01:13:34.026Z,7.90
2018-01-29T01:16:38.857Z,7.90
2018-01-29T01:19:43.791Z,7.90
2018-01-29T01:22:49.104Z,8.00
2018-01-29T01:25:54.893Z,7.80
2018-01-29T01:29:00.086Z,7.80
2018-01-29T01:32:05.505Z,7.80
2018-01-29T01:35:12.352Z,7.80
2018-01-29T01:38:18.842Z,7.80
2018-01-29T01:41:24.644Z,7.80
2018-01-29T01:44:29.833Z,7.70
2018-01-29T01:47:35.741Z,7.70
2018-01-29T01:50:41.054Z,7.70
2018-01-29T01:53:46.498Z,7.70
2018-01-29T01:56:52.758Z,7.70
2018-01-29T01:59:58.478Z,7.70
2018-01-29T02:03:03.405Z,7.70
2018-01-29T02:06:09.454Z,7.60
2018-01-29T02:09:15.274Z,7.60
2018-01-29T02:12:20.991Z,7.60
2018-01-29T02:15:27.200Z,7.60
2018-01-29T02:18:32.734Z,7.60
2018-01-29T02:21:38.906Z,7.50
2018-01-29T02:24:44.613Z,7.50
2018-01-29T02:27:50.374Z,7.50
2018-01-29T02:30:55.440Z,7.60
2018-01-29T02:34:00.457Z,7.60
2018-01-29T02:37:06.761Z,7.70
2018-01-29T02:40:12.185Z,7.70
2018-01-29T02:43:18.018Z,7.70
2018-01-29T02:46:22.994Z,7.70
2018-01-29T02:49:28.792Z,7.80
2018-01-29T02:52:34.179Z,7.80
2018-01-29T02:55:39.658Z,7.80
2018-01-29T02:58:45.322Z,7.80
2018-01-29T03:01:50.277Z,7.90
2018-01-29T03:04:56.628Z,7.90
2018-01-29T03:08:02.052Z,7.90
2018-01-29T03:11:07.267Z,8.00
2018-01-29T03:14:12.409Z,7.90
2018-01-29T03:17:17.774Z,7.90
2018-01-29T03:20:23.481Z,7.90
2018-01-29T03:23:29.733Z,7.90
2018-01-29T03:26:35.113Z,7.90
2018-01-29T03:29:40.578Z,7.90
2018-01-29T03:32:45.554Z,7.80
2018-01-29T03:35:51.357Z,7.80
2018-01-29T03:38:56.751Z,7.70
2018-01-29T03:42:02.525Z,7.70
2018-01-29T03:45:08.757Z,7.80
2018-01-29T03:48:14.615Z,7.80
2018-01-29T03:51:20.424Z,7.90
2018-01-29T03:54:26.189Z,7.90
2018-01-29T03:57:31.698Z,7.90
2018-01-29T04:00:37.351Z,7.90
2018-01-29T04:03:43.486Z,7.90
2018-01-29T04:06:48.469Z,7.90
2018-01-29T04:09:54.226Z,7.80
2018-01-29T04:13:00.454Z,7.80
2018-01-29T04:16:05.558Z,7.80
2018-01-29T04:19:11.337Z,7.80
2018-01-29T04:22:17.832Z,7.80
2018-01-29T04:25:22.781Z,7.80
2018-01-29T04:28:28.140Z,7.80
2018-01-29T04:31:32.846Z,7.80
2018-01-29T04:34:38.854Z,7.80
2018-01-29T04:37:45.041Z,7.80
2018-01-29T04:40:51.026Z,7.80
2018-01-29T04:43:56.821Z,7.80
2018-01-29T04:47:02.706Z,7.80
2018-01-29T04:50:07.598Z,7.80
2018-01-29T04:53:13.889Z,7.80
2018-01-29T04:56:20.393Z,7.80
2018-01-29T04:59:25.786Z,7.80
2018-01-29T05:02:31.258Z,7.80
2018-01-29T05:05:36.614Z,7.80
2018-01-29T05:08:41.701Z,7.70
2018-01-29T05:11:47.957Z,7.70
2018-01-29T05:14:53.485Z,7.70
2018-01-29T05:17:58.301Z,7.80
2018-01-29T05:21:05.749Z,7.70
2018-01-29T05:24:12.304Z,7.70
2018-01-29T05:27:17.234Z,7.70
2018-01-29T05:30:22.685Z,7.80
2018-01-29T05:33:27.617Z,7.80
2018-01-29T05:40:14.241Z,7.60
2018-01-29T05:43:19.474Z,7.60
2018-01-29T05:46:25.350Z,7.60
2018-01-29T05:49:30.793Z,7.70
2018-01-29T05:52:35.981Z,7.70
2018-01-29T05:55:40.981Z,7.70
2018-01-29T05:58:47.213Z,7.80
2018-01-29T06:01:52.993Z,7.70
2018-01-29T06:04:58.509Z,7.60
2018-01-29T06:08:05.009Z,7.60
2018-01-29T06:11:11.330Z,7.60
2018-01-29T06:14:17.485Z,7.60
2018-01-29T06:17:22.605Z,7.60
2018-01-29T06:20:27.943Z,7.60
2018-01-29T06:23:33.808Z,7.60
2018-01-29T06:26:39.309Z,7.60
2018-01-29T06:29:45.216Z,7.70
2018-01-29T06:32:50.869Z,7.70
2018-01-29T06:35:56.122Z,7.60
2018-01-29T06:39:01.862Z,7.70
2018-01-29T06:42:07.431Z,7.70
2018-01-29T06:45:12.801Z,7.70
2018-01-29T06:48:18.058Z,7.70
2018-01-29T06:51:24.527Z,7.70
2018-01-29T06:54:30.977Z,7.80
2018-01-29T06:57:36.697Z,7.70
2018-01-29T07:00:42.737Z,7.70
2018-01-29T07:03:49.078Z,7.70
2018-01-29T07:06:54.614Z,7.70
2018-01-29T07:09:59.761Z,7.70
2018-01-29T07:13:05.277Z,7.70
2018-01-29T07:16:11.146Z,7.70
2018-01-29T07:19:17.586Z,7.70
2018-01-29T07:22:22.645Z,7.70
2018-01-29T07:25:27.866Z,7.70
2018-01-29T07:28:34.107Z,7.60
2018-01-29T07:31:40.128Z,7.70
2018-01-29T07:34:45.677Z,7.70
2018-01-29T07:37:51.989Z,7.70
2018-01-29T07:40:57.787Z,7.70
2018-01-29T07:44:02.934Z,7.70
2018-01-29T07:47:08.534Z,7.80
2018-01-29T07:50:14.202Z,7.80
2018-01-29T07:53:19.978Z,7.70
2018-01-29T07:56:26.577Z,7.80
2018-01-29T07:59:32.253Z,7.70
2018-01-29T08:02:37.874Z,7.70
2018-01-29T08:05:44.177Z,7.70
2018-01-29T08:08:49.437Z,7.70
2018-01-29T08:11:54.949Z,7.80
2018-01-29T08:15:00.430Z,7.90
2018-01-29T08:18:05.761Z,7.90
2018-01-29T08:21:10.774Z,7.90
2018-01-29T08:24:16.010Z,7.90
2018-01-29T08:27:20.984Z,7.80
2018-01-29T08:30:27.433Z,7.80
2018-01-29T08:33:33.045Z,7.90
2018-01-29T08:36:38.109Z,7.90
2018-01-29T08:39:43.721Z,8.00
2018-01-29T08:42:49.414Z,7.90
2018-01-29T08:45:55.461Z,8.10
2018-01-29T08:49:02.101Z,8.10
2018-01-29T08:52:07.098Z,8.10
2018-01-29T08:55:13.072Z,8.00
2018-01-29T08:58:18.148Z,8.10
2018-01-29T09:01:23.377Z,8.10
2018-01-29T09:04:28.458Z,8.20
2018-01-29T09:07:34.581Z,8.30
2018-01-29T09:10:40.055Z,8.30
2018-01-29T09:13:46.161Z,8.20
2018-01-29T09:16:52.038Z,8.20
2018-01-29T09:19:57.365Z,8.20
2018-01-29T09:23:03.237Z,8.20
2018-01-29T09:26:10.069Z,8.30
2018-01-29T09:29:16.022Z,8.30
2018-01-29T09:32:21.095Z,8.30
2018-01-29T09:35:27.706Z,8.50
2018-01-29T09:38:33.545Z,8.50
2018-01-29T09:41:38.329Z,8.40
2018-01-29T09:44:44.451Z,8.50
2018-01-29T09:47:49.793Z,8.40
2018-01-29T09:50:56.421Z,8.60
2018-01-29T09:54:01.469Z,8.60
2018-01-29T09:57:07.817Z,8.40
2018-01-29T10:00:13.064Z,8.40
2018-01-29T10:03:19.679Z,8.50
2018-01-29T10:06:24.926Z,8.50
2018-01-29T10:09:30.590Z,8.60
2018-01-29T10:12:36.138Z,8.50
2018-01-29T10:15:41.465Z,8.50
2018-01-29T10:18:46.462Z,8.50
2018-01-29T10:21:51.765Z,8.30
2018-01-29T10:24:57.381Z,8.50
2018-01-29T10:28:03.669Z,8.40
2018-01-29T10:31:08.989Z,8.40
2018-01-29T10:34:14.725Z,8.50
2018-01-29T10:37:20.786Z,8.70
2018-01-29T10:40:27.113Z,8.60
2018-01-29T10:43:32.865Z,8.70
2018-01-29T10:46:38.566Z,8.70
2018-01-29T10:49:43.900Z,8.70
2018-01-29T10:52:49.261Z,8.70
2018-01-29T10:55:54.501Z,8.70
2018-01-29T10:59:00.541Z,8.80
2018-01-29T11:02:09.893Z,9.00
2018-01-29T11:05:15.577Z,8.90
2018-01-29T11:08:21.017Z,8.90
2018-01-29T11:11:26.547Z,8.70
2018-01-29T11:14:31.953Z,8.80
2018-01-29T11:17:37.747Z,9.00
2018-01-29T11:20:42.997Z,9.00
2018-01-29T11:23:49.382Z,8.90
2018-01-29T11:26:55.150Z,8.90
2018-01-29T11:30:00.940Z,8.80
2018-01-29T11:33:06.033Z,9.00
2018-01-29T11:36:11.633Z,9.10
2018-01-29T11:39:16.872Z,9.10
2018-01-29T11:42:21.817Z,9.10
2018-01-29T11:45:27.148Z,9.00
2018-01-29T11:48:33.009Z,9.00
2018-01-29T11:51:38.529Z,9.00
2018-01-29T11:54:43.438Z,9.00
2018-01-29T11:57:49.597Z,9.10
2018-01-29T12:00:54.585Z,9.10
2018-01-29T12:03:59.570Z,9.20
2018-01-29T12:07:05.577Z,9.20
2018-01-29T12:10:10.782Z,9.20
2018-01-29T12:13:16.421Z,9.30
2018-01-29T12:16:21.285Z,9.40
2018-01-29T12:19:26.418Z,9.40
2018-01-29T12:22:31.855Z,9.50
2018-01-29T12:25:36.978Z,9.20
2018-01-29T12:28:43.026Z,9.40
2018-01-29T12:31:49.239Z,9.50
2018-01-29T12:34:54.218Z,9.50
2018-01-29T12:37:59.786Z,9.40
2018-01-29T12:41:06.013Z,9.30
2018-01-29T12:44:11.432Z,9.20
2018-01-29T12:47:16.998Z,9.20
2018-01-29T12:50:23.229Z,9.30
2018-01-29T12:53:29.329Z,9.50
2018-01-29T12:56:35.474Z,9.30
2018-01-29T12:59:41.381Z,9.20
2018-01-29T13:02:47.049Z,9.30
2018-01-29T13:05:53.001Z,9.30
2018-01-29T13:08:58.861Z,9.30
2018-01-29T13:12:04.471Z,9.40
2018-01-29T13:15:10.305Z,9.40
2018-01-29T13:18:16.541Z,9.50
2018-01-29T13:21:22.127Z,9.50
2018-01-29T13:24:27.125Z,9.60
2018-01-29T13:27:32.858Z,9.70
2018-01-29T13:30:38.473Z,9.60
2018-01-29T13:33:43.910Z,9.60
2018-01-29T13:36:49.791Z,9.40
2018-01-29T13:39:55.290Z,9.30
2018-01-29T13:43:01.553Z,9.30
2018-01-29T13:46:07.953Z,9.30
2018-01-29T13:49:13.801Z,9.30
2018-01-29T13:52:19.126Z,9.30
2018-01-29T13:55:25.013Z,9.30
2018-01-29T13:58:30.262Z,9.30
2018-01-29T14:01:35.998Z,9.40
2018-01-29T14:04:43.507Z,9.40
2018-01-29T14:07:49.189Z,9.40
2018-01-29T14:10:55.152Z,9.50
2018-01-29T14:14:00.993Z,9.50
2018-01-29T14:17:06.587Z,9.50
2018-01-29T14:20:12.845Z,9.50
2018-01-29T14:23:18.567Z,9.40
2018-01-29T14:26:24.750Z,9.50
2018-01-29T14:29:30.603Z,9.60
2018-01-29T14:32:36.873Z,9.60
2018-01-29T14:35:42.643Z,9.60
2018-01-29T14:38:47.922Z,9.60
2018-01-29T14:41:53.773Z,9.50
2018-01-29T14:44:58.569Z,9.50
2018-01-29T14:48:04.175Z,9.50
2018-01-29T14:51:09.257Z,9.50
2018-01-29T14:54:14.146Z,9.50
2018-01-29T14:57:20.690Z,9.40
2018-01-29T15:00:26.349Z,9.40
2018-01-29T15:03:32.090Z,9.40
2018-01-29T15:06:37.261Z,9.50
2018-01-29T15:09:42.798Z,9.50
2018-01-29T15:12:47.983Z,9.50
2018-01-29T15:15:53.842Z,9.40
2018-01-29T15:18:59.582Z,9.40
2018-01-29T15:22:05.581Z,9.30
2018-01-29T15:25:11.754Z,9.30
2018-01-29T15:28:17.595Z,9.30
2018-01-29T15:31:22.667Z,9.40
2018-01-29T15:34:28.596Z,9.40
2018-01-29T15:37:34.228Z,9.40
2018-01-29T15:40:39.514Z,9.40
2018-01-29T15:43:44.974Z,9.40
2018-01-29T15:46:51.261Z,9.40
2018-01-29T15:49:56.226Z,9.40
2018-01-29T15:53:01.952Z,9.40
2018-01-29T15:56:07.636Z,9.40
2018-01-29T15:59:13.797Z,9.40
2018-01-29T16:02:18.889Z,9.40
2018-01-29T16:05:24.557Z,9.40
2018-01-29T16:08:29.421Z,9.40
2018-01-29T16:11:35.282Z,9.40
2018-01-29T16:14:41.528Z,9.50
2018-01-29T16:17:47.871Z,9.40
2018-01-29T16:20:53.469Z,9.40
2018-01-29T16:23:58.509Z,9.30
2018-01-29T16:27:04.933Z,9.30
2018-01-29T16:30:10.750Z,9.30
2018-01-29T16:33:16.429Z,9.40
2018-01-29T16:36:22.320Z,9.40
2018-01-29T16:39:28.437Z,9.40
2018-01-29T16:42:34.530Z,9.50
2018-01-29T16:45:40.022Z,9.40
2018-01-29T16:48:45.377Z,9.50
2018-01-29T16:51:51.430Z,9.40
2018-01-29T16:54:58.681Z,9.40
2018-01-29T16:58:04.189Z,9.40
2018-01-29T17:01:09.325Z,9.40
2018-01-29T17:04:14.579Z,9.40
2018-01-29T17:07:21.112Z,9.40
2018-01-29T17:10:26.240Z,9.40
2018-01-29T17:13:32.861Z,9.30
2018-01-29T17:16:38.466Z,9.30
2018-01-29T17:19:44.586Z,9.30
2018-01-29T17:22:51.813Z,9.30
2018-01-29T17:25:57.039Z,9.30
2018-01-29T17:29:03.196Z,9.30
2018-01-29T17:32:09.546Z,9.30
2018-01-29T17:35:16.184Z,9.30
2018-01-29T17:38:21.853Z,9.20
2018-01-29T17:41:26.953Z,9.30
2018-01-29T17:44:32.357Z,9.30
2018-01-29T17:47:38.725Z,9.10
2018-01-29T17:50:43.573Z,9.10
2018-01-29T17:53:48.493Z,9.10
2018-01-29T17:56:53.497Z,9.10
2018-01-29T17:59:59.805Z,9.10
2018-01-29T18:03:05.318Z,9.10
2018-01-29T18:06:11.215Z,9.20
2018-01-29T18:09:16.762Z,9.10
2018-01-29T18:12:21.678Z,9.10
2018-01-29T18:15:27.081Z,9.10
2018-01-29T18:18:32.678Z,9.10
2018-01-29T18:21:38.453Z,9.10
2018-01-29T18:24:43.706Z,9.00
2018-01-29T18:27:50.021Z,9.00
2018-01-29T18:30:54.950Z,9.00
2018-01-29T18:34:00.659Z,9.10
2018-01-29T18:37:05.837Z,9.10
2018-01-29T18:40:11.501Z,9.00
2018-01-29T18:43:17.633Z,9.00
2018-01-29T18:46:22.529Z,9.00
2018-01-29T18:49:27.915Z,9.00
2018-01-29T18:52:33.191Z,9.00
2018-01-29T18:55:39.058Z,8.90
2018-01-29T18:58:44.804Z,9.00
2018-01-29T19:01:49.929Z,9.10
2018-01-29T19:04:55.121Z,9.20
2018-01-29T19:08:00.035Z,9.10
2018-01-29T19:11:05.597Z,9.10
2018-01-29T19:14:11.032Z,9.10
2018-01-29T19:17:16.522Z,9.10
2018-01-29T19:20:22.261Z,9.20
2018-01-29T19:23:27.988Z,9.20
2018-01-29T19:26:33.658Z,9.10
2018-01-29T19:29:39.413Z,9.10
2018-01-29T19:32:45.394Z,9.20
2018-01-29T19:35:50.837Z,9.20
2018-01-29T19:38:55.925Z,9.30
2018-01-29T19:42:01.462Z,9.30
2018-01-29T19:45:06.933Z,9.30
2018-01-29T19:48:12.389Z,9.30
2018-01-29T19:51:18.309Z,9.30
2018-01-29T19:54:24.053Z,9.30
2018-01-29T19:57:29.409Z,9.40
2018-01-29T20:00:35.447Z,9.30
2018-01-29T20:03:40.313Z,9.30
2018-01-29T20:06:46.003Z,9.40
2018-01-29T20:09:51.465Z,9.30
2018-01-29T20:12:57.235Z,9.40
2018-01-29T20:16:02.094Z,9.40
2018-01-29T20:19:07.686Z,9.40
2018-01-29T20:22:13.225Z,9.40
2018-01-29T20:25:19.793Z,9.40
2018-01-29T20:28:24.849Z,9.40
2018-01-29T20:31:29.988Z,9.40
2018-01-29T20:34:35.167Z,9.40
2018-01-29T20:37:41.496Z,9.40
2018-01-29T20:40:46.541Z,9.40
2018-01-29T20:43:51.462Z,9.30
2018-01-29T20:46:56.705Z,9.30
2018-01-29T20:50:02.765Z,9.30
2018-01-29T20:53:07.881Z,9.30
2018-01-29T20:56:12.877Z,9.30
2018-01-29T20:59:17.865Z,9.30
2018-01-29T21:02:23.149Z,9.30
2018-01-29T21:05:29.485Z,9.30
2018-01-29T21:08:35.262Z,9.20
2018-01-29T21:11:40.294Z,9.30
2018-01-29T21:14:45.926Z,9.20
2018-01-29T21:17:51.173Z,9.10
2018-01-29T21:20:56.672Z,9.10
2018-01-29T21:24:02.346Z,9.00
2018-01-29T21:27:08.333Z,8.90
2018-01-29T21:30:13.885Z,8.90
2018-01-29T21:33:19.659Z,8.80
2018-01-29T21:36:25.265Z,8.80
2018-01-29T21:39:30.397Z,8.80
2018-01-29T21:42:36.889Z,8.80
2018-01-29T21:45:42.493Z,8.80
2018-01-29T21:48:48.181Z,8.80
2018-01-29T21:51:53.002Z,8.80
2018-01-29T21:54:58.118Z,8.70
2018-01-29T21:58:03.893Z,8.70
2018-01-29T22:01:09.481Z,8.70
2018-01-29T22:04:14.802Z,8.70
2018-01-29T22:07:20.173Z,8.60
2018-01-29T22:10:25.837Z,8.60
2018-01-29T22:13:30.973Z,8.60
2018-01-29T22:16:36.438Z,8.60
2018-01-29T22:19:42.005Z,8.60
2018-01-29T22:22:46.862Z,8.60
2018-01-29T22:25:52.905Z,8.60
2018-01-29T22:28:58.866Z,8.60
2018-01-29T22:32:04.402Z,8.60
2018-01-29T22:35:09.960Z,8.60
2018-01-29T22:38:14.787Z,8.50
2018-01-29T22:41:19.958Z,8.60
2018-01-29T22:44:25.568Z,8.60
2018-01-29T22:47:30.678Z,8.50
2018-01-29T22:50:35.969Z,8.50
2018-01-29T22:53:41.757Z,8.50
2018-01-29T22:56:47.401Z,8.50
2018-01-29T22:59:52.382Z,8.50
2018-01-29T23:02:58.289Z,8.50
2018-01-29T23:06:03.536Z,8.50
2018-01-29T23:09:09.302Z,8.60
2018-01-29T23:12:15.417Z,8.60
2018-01-29T23:15:21.065Z,8.60
2018-01-29T23:18:26.294Z,8.50
2018-01-29T23:21:31.630Z,8.40
2018-01-29T23:24:36.654Z,8.50
2018-01-29T23:27:41.677Z,8.40
2018-01-29T23:30:46.773Z,8.40
2018-01-29T23:33:52.306Z,8.40
2018-01-29T23:36:57.489Z,8.40
2018-01-29T23:40:04.065Z,8.50
2018-01-29T23:43:10.130Z,8.50
2018-01-29T23:46:15.709Z,8.50
2018-01-29T23:49:20.889Z,8.50
2018-01-29T23:52:26.322Z,8.50
2018-01-29T23:55:31.594Z,8.50
2018-01-29T23:58:37.146Z,8.50
